sensor_id;sensor_type;location;lat;lon;timestamp;P1;durP1;ratioP1;P2;durP2;ratioP2
55254;SDS011;41118;44.634;11.182;2024-02-21T00:00:17;50.33;;;24.55;;
55254;SDS011;41118;44.634;11.182;2024-02-21T00:02:43;42.78;;;20.63;;
55254;SDS011;41118;44.634;11.182;2024-02-21T00:05:10;51.35;;;25.63;;
55254;SDS011;41118;44.634;11.182;2024-02-21T00:07:36;44.45;;;22.33;;
55254;SDS011;41118;44.634;11.182;2024-02-21T00:10:02;46.63;;;22.92;;
55254;SDS011;41118;44.634;11.182;2024-02-21T00:12:28;46.83;;;22.20;;
55254;SDS011;41118;44.634;11.182;2024-02-21T00:14:54;42.92;;;20.27;;
55254;SDS011;41118;44.634;11.182;2024-02-21T00:17:21;46.53;;;22.90;;
55254;SDS011;41118;44.634;11.182;2024-02-21T00:19:47;48.60;;;23.50;;
55254;SDS011;41118;44.634;11.182;2024-02-21T00:22:13;46.15;;;21.30;;
55254;SDS011;41118;44.634;11.182;2024-02-21T00:24:39;46.72;;;21.60;;
55254;SDS011;41118;44.634;11.182;2024-02-21T00:27:05;41.63;;;20.98;;
55254;SDS011;41118;44.634;11.182;2024-02-21T00:29:31;43.60;;;20.73;;
55254;SDS011;41118;44.634;11.182;2024-02-21T00:31:59;43.97;;;22.67;;
55254;SDS011;41118;44.634;11.182;2024-02-21T00:34:25;43.53;;;19.42;;
55254;SDS011;41118;44.634;11.182;2024-02-21T00:36:51;46.42;;;20.75;;
55254;SDS011;41118;44.634;11.182;2024-02-21T00:39:18;39.10;;;19.10;;
55254;SDS011;41118;44.634;11.182;2024-02-21T00:41:44;40.72;;;21.25;;
55254;SDS011;41118;44.634;11.182;2024-02-21T00:44:10;41.00;;;18.83;;
55254;SDS011;41118;44.634;11.182;2024-02-21T00:46:36;37.72;;;16.88;;
55254;SDS011;41118;44.634;11.182;2024-02-21T00:49:03;47.20;;;24.58;;
55254;SDS011;41118;44.634;11.182;2024-02-21T00:51:30;36.33;;;17.10;;
55254;SDS011;41118;44.634;11.182;2024-02-21T00:53:56;37.80;;;19.38;;
55254;SDS011;41118;44.634;11.182;2024-02-21T00:56:23;37.63;;;17.60;;
55254;SDS011;41118;44.634;11.182;2024-02-21T00:58:49;42.83;;;20.58;;
55254;SDS011;41118;44.634;11.182;2024-02-21T01:01:22;41.63;;;18.40;;
55254;SDS011;41118;44.634;11.182;2024-02-21T01:03:48;43.47;;;20.30;;
55254;SDS011;41118;44.634;11.182;2024-02-21T01:06:14;43.63;;;19.88;;
55254;SDS011;41118;44.634;11.182;2024-02-21T01:08:40;43.63;;;19.42;;
55254;SDS011;41118;44.634;11.182;2024-02-21T01:11:06;41.20;;;20.10;;
55254;SDS011;41118;44.634;11.182;2024-02-21T01:13:33;41.58;;;22.05;;
55254;SDS011;41118;44.634;11.182;2024-02-21T01:15:59;42.47;;;18.98;;
55254;SDS011;41118;44.634;11.182;2024-02-21T01:18:25;44.38;;;21.90;;
55254;SDS011;41118;44.634;11.182;2024-02-21T01:20:51;45.17;;;20.75;;
55254;SDS011;41118;44.634;11.182;2024-02-21T01:23:18;33.70;;;16.52;;
55254;SDS011;41118;44.634;11.182;2024-02-21T01:25:44;37.20;;;18.95;;
55254;SDS011;41118;44.634;11.182;2024-02-21T01:28:10;35.67;;;16.80;;
55254;SDS011;41118;44.634;11.182;2024-02-21T01:30:36;43.63;;;19.13;;
55254;SDS011;41118;44.634;11.182;2024-02-21T01:33:03;38.25;;;18.02;;
55254;SDS011;41118;44.634;11.182;2024-02-21T01:35:29;35.65;;;19.13;;
55254;SDS011;41118;44.634;11.182;2024-02-21T01:37:56;37.67;;;18.90;;
55254;SDS011;41118;44.634;11.182;2024-02-21T01:40:22;43.35;;;18.92;;
55254;SDS011;41118;44.634;11.182;2024-02-21T01:42:48;36.88;;;17.63;;
55254;SDS011;41118;44.634;11.182;2024-02-21T01:45:14;41.30;;;19.70;;
55254;SDS011;41118;44.634;11.182;2024-02-21T01:47:41;37.67;;;17.67;;
55254;SDS011;41118;44.634;11.182;2024-02-21T01:50:07;36.30;;;17.23;;
55254;SDS011;41118;44.634;11.182;2024-02-21T01:52:34;39.75;;;17.77;;
55254;SDS011;41118;44.634;11.182;2024-02-21T01:55:00;40.53;;;17.58;;
55254;SDS011;41118;44.634;11.182;2024-02-21T01:57:27;37.60;;;19.20;;
55254;SDS011;41118;44.634;11.182;2024-02-21T01:59:54;30.55;;;14.95;;
55254;SDS011;41118;44.634;11.182;2024-02-21T02:02:20;36.08;;;17.77;;
55254;SDS011;41118;44.634;11.182;2024-02-21T02:04:47;36.70;;;16.75;;
55254;SDS011;41118;44.634;11.182;2024-02-21T02:07:14;33.70;;;17.60;;
55254;SDS011;41118;44.634;11.182;2024-02-21T02:09:40;31.65;;;16.77;;
55254;SDS011;41118;44.634;11.182;2024-02-21T02:12:06;27.52;;;14.75;;
55254;SDS011;41118;44.634;11.182;2024-02-21T02:14:32;34.97;;;17.23;;
55254;SDS011;41118;44.634;11.182;2024-02-21T02:16:58;34.85;;;16.05;;
55254;SDS011;41118;44.634;11.182;2024-02-21T02:19:25;33.75;;;14.52;;
55254;SDS011;41118;44.634;11.182;2024-02-21T02:21:53;36.17;;;16.48;;
55254;SDS011;41118;44.634;11.182;2024-02-21T02:24:24;30.58;;;15.85;;
55254;SDS011;41118;44.634;11.182;2024-02-21T02:26:51;32.40;;;16.02;;
55254;SDS011;41118;44.634;11.182;2024-02-21T02:29:17;37.92;;;14.48;;
55254;SDS011;41118;44.634;11.182;2024-02-21T02:31:44;35.20;;;17.33;;
55254;SDS011;41118;44.634;11.182;2024-02-21T02:34:10;36.38;;;17.63;;
55254;SDS011;41118;44.634;11.182;2024-02-21T02:36:36;33.50;;;14.57;;
55254;SDS011;41118;44.634;11.182;2024-02-21T02:39:02;32.00;;;15.82;;
55254;SDS011;41118;44.634;11.182;2024-02-21T02:41:28;28.23;;;13.93;;
55254;SDS011;41118;44.634;11.182;2024-02-21T02:43:54;28.45;;;12.98;;
55254;SDS011;41118;44.634;11.182;2024-02-21T02:46:20;35.50;;;16.00;;
55254;SDS011;41118;44.634;11.182;2024-02-21T02:48:46;35.35;;;12.95;;
55254;SDS011;41118;44.634;11.182;2024-02-21T02:51:13;28.05;;;13.80;;
55254;SDS011;41118;44.634;11.182;2024-02-21T02:53:39;34.83;;;15.52;;
55254;SDS011;41118;44.634;11.182;2024-02-21T02:56:05;29.58;;;14.50;;
55254;SDS011;41118;44.634;11.182;2024-02-21T02:58:31;34.88;;;13.10;;
55254;SDS011;41118;44.634;11.182;2024-02-21T03:00:57;31.95;;;15.65;;
55254;SDS011;41118;44.634;11.182;2024-02-21T03:03:23;31.38;;;11.98;;
55254;SDS011;41118;44.634;11.182;2024-02-21T03:05:49;27.95;;;13.70;;
55254;SDS011;41118;44.634;11.182;2024-02-21T03:08:15;30.13;;;13.85;;
55254;SDS011;41118;44.634;11.182;2024-02-21T03:10:42;29.15;;;13.25;;
55254;SDS011;41118;44.634;11.182;2024-02-21T03:13:08;25.60;;;13.18;;
55254;SDS011;41118;44.634;11.182;2024-02-21T03:15:34;33.35;;;13.43;;
55254;SDS011;41118;44.634;11.182;2024-02-21T03:18:00;29.67;;;12.75;;
55254;SDS011;41118;44.634;11.182;2024-02-21T03:20:26;28.83;;;13.13;;
55254;SDS011;41118;44.634;11.182;2024-02-21T03:22:52;28.30;;;11.40;;
55254;SDS011;41118;44.634;11.182;2024-02-21T03:25:19;23.80;;;9.60;;
55254;SDS011;41118;44.634;11.182;2024-02-21T03:27:45;23.67;;;12.00;;
55254;SDS011;41118;44.634;11.182;2024-02-21T03:30:12;25.23;;;11.85;;
55254;SDS011;41118;44.634;11.182;2024-02-21T03:32:38;22.92;;;10.15;;
55254;SDS011;41118;44.634;11.182;2024-02-21T03:35:04;25.92;;;11.45;;
55254;SDS011;41118;44.634;11.182;2024-02-21T03:37:30;20.35;;;9.70;;
55254;SDS011;41118;44.634;11.182;2024-02-21T03:39:56;28.85;;;10.90;;
55254;SDS011;41118;44.634;11.182;2024-02-21T03:42:22;21.75;;;10.02;;
55254;SDS011;41118;44.634;11.182;2024-02-21T03:44:48;23.58;;;9.02;;
55254;SDS011;41118;44.634;11.182;2024-02-21T03:47:15;25.65;;;9.70;;
55254;SDS011;41118;44.634;11.182;2024-02-21T03:49:42;30.60;;;10.27;;
55254;SDS011;41118;44.634;11.182;2024-02-21T03:52:08;20.40;;;9.65;;
55254;SDS011;41118;44.634;11.182;2024-02-21T03:54:35;21.15;;;8.90;;
55254;SDS011;41118;44.634;11.182;2024-02-21T03:57:02;22.20;;;9.73;;
55254;SDS011;41118;44.634;11.182;2024-02-21T03:59:28;22.38;;;9.25;;
55254;SDS011;41118;44.634;11.182;2024-02-21T04:01:54;19.95;;;9.00;;
55254;SDS011;41118;44.634;11.182;2024-02-21T04:04:21;19.17;;;8.60;;
55254;SDS011;41118;44.634;11.182;2024-02-21T04:06:50;23.15;;;8.25;;
55254;SDS011;41118;44.634;11.182;2024-02-21T04:09:16;20.13;;;9.32;;
55254;SDS011;41118;44.634;11.182;2024-02-21T04:11:42;20.73;;;8.68;;
55254;SDS011;41118;44.634;11.182;2024-02-21T04:14:09;15.75;;;7.88;;
55254;SDS011;41118;44.634;11.182;2024-02-21T04:16:36;25.48;;;8.80;;
55254;SDS011;41118;44.634;11.182;2024-02-21T04:19:02;22.17;;;9.43;;
55254;SDS011;41118;44.634;11.182;2024-02-21T04:21:29;17.63;;;7.07;;
55254;SDS011;41118;44.634;11.182;2024-02-21T04:23:55;22.10;;;9.30;;
55254;SDS011;41118;44.634;11.182;2024-02-21T04:26:21;18.77;;;8.43;;
55254;SDS011;41118;44.634;11.182;2024-02-21T04:28:48;17.63;;;9.27;;
55254;SDS011;41118;44.634;11.182;2024-02-21T04:31:14;25.83;;;9.02;;
55254;SDS011;41118;44.634;11.182;2024-02-21T04:33:41;16.38;;;7.63;;
55254;SDS011;41118;44.634;11.182;2024-02-21T04:36:07;20.20;;;7.45;;
55254;SDS011;41118;44.634;11.182;2024-02-21T04:38:34;16.83;;;9.30;;
55254;SDS011;41118;44.634;11.182;2024-02-21T04:41:00;15.57;;;7.32;;
55254;SDS011;41118;44.634;11.182;2024-02-21T04:43:26;28.70;;;9.32;;
55254;SDS011;41118;44.634;11.182;2024-02-21T04:45:53;21.10;;;9.07;;
55254;SDS011;41118;44.634;11.182;2024-02-21T04:48:19;18.13;;;8.50;;
55254;SDS011;41118;44.634;11.182;2024-02-21T04:50:45;19.40;;;7.90;;
55254;SDS011;41118;44.634;11.182;2024-02-21T04:53:12;14.38;;;6.32;;
55254;SDS011;41118;44.634;11.182;2024-02-21T04:55:38;16.42;;;7.10;;
55254;SDS011;41118;44.634;11.182;2024-02-21T04:58:05;17.52;;;8.07;;
55254;SDS011;41118;44.634;11.182;2024-02-21T05:00:31;19.95;;;7.28;;
55254;SDS011;41118;44.634;11.182;2024-02-21T05:02:57;14.73;;;6.75;;
55254;SDS011;41118;44.634;11.182;2024-02-21T05:05:23;20.70;;;7.35;;
55254;SDS011;41118;44.634;11.182;2024-02-21T05:07:49;18.45;;;8.02;;
55254;SDS011;41118;44.634;11.182;2024-02-21T05:10:15;20.75;;;8.27;;
55254;SDS011;41118;44.634;11.182;2024-02-21T05:12:42;19.15;;;8.35;;
55254;SDS011;41118;44.634;11.182;2024-02-21T05:15:09;16.80;;;7.78;;
55254;SDS011;41118;44.634;11.182;2024-02-21T05:17:35;11.73;;;7.13;;
55254;SDS011;41118;44.634;11.182;2024-02-21T05:20:01;18.10;;;7.78;;
55254;SDS011;41118;44.634;11.182;2024-02-21T05:22:27;18.75;;;7.60;;
55254;SDS011;41118;44.634;11.182;2024-02-21T05:24:53;16.40;;;6.50;;
55254;SDS011;41118;44.634;11.182;2024-02-21T05:27:19;12.35;;;5.72;;
55254;SDS011;41118;44.634;11.182;2024-02-21T05:29:45;14.63;;;5.20;;
55254;SDS011;41118;44.634;11.182;2024-02-21T05:32:13;15.88;;;7.45;;
55254;SDS011;41118;44.634;11.182;2024-02-21T05:34:39;17.00;;;5.22;;
55254;SDS011;41118;44.634;11.182;2024-02-21T05:37:06;21.75;;;7.45;;
55254;SDS011;41118;44.634;11.182;2024-02-21T05:39:32;19.83;;;8.18;;
55254;SDS011;41118;44.634;11.182;2024-02-21T05:41:58;23.95;;;7.35;;
55254;SDS011;41118;44.634;11.182;2024-02-21T05:44:24;14.95;;;6.35;;
55254;SDS011;41118;44.634;11.182;2024-02-21T05:46:52;17.90;;;5.78;;
55254;SDS011;41118;44.634;11.182;2024-02-21T05:49:18;18.85;;;7.07;;
55254;SDS011;41118;44.634;11.182;2024-02-21T05:51:44;14.90;;;7.15;;
55254;SDS011;41118;44.634;11.182;2024-02-21T05:54:10;17.88;;;7.47;;
55254;SDS011;41118;44.634;11.182;2024-02-21T05:56:36;18.42;;;7.28;;
55254;SDS011;41118;44.634;11.182;2024-02-21T05:59:02;19.95;;;7.13;;
55254;SDS011;41118;44.634;11.182;2024-02-21T06:01:28;17.23;;;6.75;;
55254;SDS011;41118;44.634;11.182;2024-02-21T06:03:54;15.05;;;5.88;;
55254;SDS011;41118;44.634;11.182;2024-02-21T06:06:20;24.17;;;9.60;;
55254;SDS011;41118;44.634;11.182;2024-02-21T06:08:47;19.52;;;7.43;;
55254;SDS011;41118;44.634;11.182;2024-02-21T06:11:13;17.48;;;6.72;;
55254;SDS011;41118;44.634;11.182;2024-02-21T06:13:40;14.63;;;5.63;;
55254;SDS011;41118;44.634;11.182;2024-02-21T06:16:07;15.68;;;6.35;;
55254;SDS011;41118;44.634;11.182;2024-02-21T06:18:35;20.13;;;6.78;;
55254;SDS011;41118;44.634;11.182;2024-02-21T06:21:02;20.00;;;6.75;;
55254;SDS011;41118;44.634;11.182;2024-02-21T06:23:28;15.70;;;7.70;;
55254;SDS011;41118;44.634;11.182;2024-02-21T06:25:54;17.58;;;6.57;;
55254;SDS011;41118;44.634;11.182;2024-02-21T06:28:20;21.25;;;5.85;;
55254;SDS011;41118;44.634;11.182;2024-02-21T06:30:46;16.23;;;6.22;;
55254;SDS011;41118;44.634;11.182;2024-02-21T06:33:12;13.68;;;4.53;;
55254;SDS011;41118;44.634;11.182;2024-02-21T06:35:38;12.65;;;4.28;;
55254;SDS011;41118;44.634;11.182;2024-02-21T06:38:06;19.30;;;6.50;;
55254;SDS011;41118;44.634;11.182;2024-02-21T06:40:32;11.50;;;4.57;;
55254;SDS011;41118;44.634;11.182;2024-02-21T06:43:04;12.63;;;4.35;;
55254;SDS011;41118;44.634;11.182;2024-02-21T06:45:31;12.98;;;4.97;;
55254;SDS011;41118;44.634;11.182;2024-02-21T06:47:57;12.15;;;4.18;;
55254;SDS011;41118;44.634;11.182;2024-02-21T06:50:23;12.68;;;5.60;;
55254;SDS011;41118;44.634;11.182;2024-02-21T06:52:50;11.38;;;4.45;;
55254;SDS011;41118;44.634;11.182;2024-02-21T06:55:16;15.82;;;5.35;;
55254;SDS011;41118;44.634;11.182;2024-02-21T06:57:42;12.32;;;4.68;;
55254;SDS011;41118;44.634;11.182;2024-02-21T07:00:09;27.25;;;4.43;;
55254;SDS011;41118;44.634;11.182;2024-02-21T07:02:35;18.60;;;4.65;;
55254;SDS011;41118;44.634;11.182;2024-02-21T07:05:02;14.57;;;4.97;;
55254;SDS011;41118;44.634;11.182;2024-02-21T07:07:28;14.93;;;4.90;;
55254;SDS011;41118;44.634;11.182;2024-02-21T07:09:54;13.93;;;5.38;;
55254;SDS011;41118;44.634;11.182;2024-02-21T07:12:20;12.65;;;3.25;;
55254;SDS011;41118;44.634;11.182;2024-02-21T07:14:47;16.02;;;4.45;;
55254;SDS011;41118;44.634;11.182;2024-02-21T07:17:13;15.93;;;4.32;;
55254;SDS011;41118;44.634;11.182;2024-02-21T07:19:39;11.55;;;3.45;;
55254;SDS011;41118;44.634;11.182;2024-02-21T07:22:05;8.85;;;3.47;;
55254;SDS011;41118;44.634;11.182;2024-02-21T07:24:31;13.48;;;5.95;;
55254;SDS011;41118;44.634;11.182;2024-02-21T07:26:57;6.97;;;2.20;;
55254;SDS011;41118;44.634;11.182;2024-02-21T07:29:29;11.40;;;2.28;;
55254;SDS011;41118;44.634;11.182;2024-02-21T07:31:55;11.95;;;2.78;;
55254;SDS011;41118;44.634;11.182;2024-02-21T07:34:21;11.18;;;2.65;;
55254;SDS011;41118;44.634;11.182;2024-02-21T07:36:48;9.25;;;1.80;;
55254;SDS011;41118;44.634;11.182;2024-02-21T07:39:14;7.60;;;1.92;;
55254;SDS011;41118;44.634;11.182;2024-02-21T07:41:41;12.75;;;2.45;;
55254;SDS011;41118;44.634;11.182;2024-02-21T07:44:10;12.73;;;1.85;;
55254;SDS011;41118;44.634;11.182;2024-02-21T07:46:36;9.27;;;2.28;;
55254;SDS011;41118;44.634;11.182;2024-02-21T07:49:02;11.15;;;2.60;;
55254;SDS011;41118;44.634;11.182;2024-02-21T07:51:29;8.73;;;1.98;;
55254;SDS011;41118;44.634;11.182;2024-02-21T07:53:55;10.70;;;2.33;;
55254;SDS011;41118;44.634;11.182;2024-02-21T07:56:21;12.95;;;3.08;;
55254;SDS011;41118;44.634;11.182;2024-02-21T07:58:47;9.23;;;3.00;;
55254;SDS011;41118;44.634;11.182;2024-02-21T08:01:19;11.57;;;3.90;;
55254;SDS011;41118;44.634;11.182;2024-02-21T08:03:46;10.63;;;2.65;;
55254;SDS011;41118;44.634;11.182;2024-02-21T08:06:12;9.48;;;2.42;;
55254;SDS011;41118;44.634;11.182;2024-02-21T08:08:38;9.05;;;2.20;;
55254;SDS011;41118;44.634;11.182;2024-02-21T08:11:05;22.70;;;8.10;;
55254;SDS011;41118;44.634;11.182;2024-02-21T08:13:31;15.10;;;3.72;;
55254;SDS011;41118;44.634;11.182;2024-02-21T08:15:57;13.80;;;3.63;;
55254;SDS011;41118;44.634;11.182;2024-02-21T08:18:23;11.38;;;3.38;;
55254;SDS011;41118;44.634;11.182;2024-02-21T08:20:49;10.25;;;3.22;;
55254;SDS011;41118;44.634;11.182;2024-02-21T08:23:15;21.75;;;5.20;;
55254;SDS011;41118;44.634;11.182;2024-02-21T08:25:42;20.48;;;6.15;;
55254;SDS011;41118;44.634;11.182;2024-02-21T08:28:08;20.38;;;6.63;;
55254;SDS011;41118;44.634;11.182;2024-02-21T08:30:34;20.40;;;7.15;;
55254;SDS011;41118;44.634;11.182;2024-02-21T08:33:01;20.13;;;6.18;;
55254;SDS011;41118;44.634;11.182;2024-02-21T08:35:28;22.58;;;7.90;;
55254;SDS011;41118;44.634;11.182;2024-02-21T08:37:54;20.33;;;6.40;;
55254;SDS011;41118;44.634;11.182;2024-02-21T08:40:21;18.77;;;6.85;;
55254;SDS011;41118;44.634;11.182;2024-02-21T08:42:47;24.55;;;10.27;;
55254;SDS011;41118;44.634;11.182;2024-02-21T08:45:14;22.48;;;9.13;;
55254;SDS011;41118;44.634;11.182;2024-02-21T08:47:41;21.88;;;9.48;;
55254;SDS011;41118;44.634;11.182;2024-02-21T08:50:07;32.13;;;11.65;;
55254;SDS011;41118;44.634;11.182;2024-02-21T08:52:37;16.50;;;6.63;;
55254;SDS011;41118;44.634;11.182;2024-02-21T08:55:03;22.98;;;8.73;;
55254;SDS011;41118;44.634;11.182;2024-02-21T08:57:29;20.52;;;7.60;;
55254;SDS011;41118;44.634;11.182;2024-02-21T09:00:01;23.75;;;9.52;;
55254;SDS011;41118;44.634;11.182;2024-02-21T09:02:31;19.70;;;8.30;;
55254;SDS011;41118;44.634;11.182;2024-02-21T09:04:57;24.60;;;7.85;;
55254;SDS011;41118;44.634;11.182;2024-02-21T09:07:23;31.05;;;9.77;;
55254;SDS011;41118;44.634;11.182;2024-02-21T09:09:50;21.13;;;9.90;;
55254;SDS011;41118;44.634;11.182;2024-02-21T09:12:16;21.38;;;9.10;;
55254;SDS011;41118;44.634;11.182;2024-02-21T09:14:43;23.58;;;7.57;;
55254;SDS011;41118;44.634;11.182;2024-02-21T09:17:09;28.00;;;10.55;;
55254;SDS011;41118;44.634;11.182;2024-02-21T09:19:35;25.70;;;8.45;;
55254;SDS011;41118;44.634;11.182;2024-02-21T09:22:01;27.30;;;9.38;;
55254;SDS011;41118;44.634;11.182;2024-02-21T09:24:28;21.38;;;7.43;;
55254;SDS011;41118;44.634;11.182;2024-02-21T09:26:54;24.92;;;10.70;;
55254;SDS011;41118;44.634;11.182;2024-02-21T09:29:20;24.90;;;9.38;;
55254;SDS011;41118;44.634;11.182;2024-02-21T09:31:46;31.65;;;10.85;;
55254;SDS011;41118;44.634;11.182;2024-02-21T09:34:12;26.63;;;11.07;;
55254;SDS011;41118;44.634;11.182;2024-02-21T09:36:39;27.92;;;10.93;;
55254;SDS011;41118;44.634;11.182;2024-02-21T09:39:05;24.90;;;10.82;;
55254;SDS011;41118;44.634;11.182;2024-02-21T09:41:32;27.42;;;10.50;;
55254;SDS011;41118;44.634;11.182;2024-02-21T09:43:59;24.80;;;10.02;;
55254;SDS011;41118;44.634;11.182;2024-02-21T09:46:37;24.08;;;10.07;;
55254;SDS011;41118;44.634;11.182;2024-02-21T09:49:29;29.15;;;12.25;;
55254;SDS011;41118;44.634;11.182;2024-02-21T09:51:53;35.40;;;12.98;;
55254;SDS011;41118;44.634;11.182;2024-02-21T09:54:20;26.63;;;10.10;;
55254;SDS011;41118;44.634;11.182;2024-02-21T09:56:47;29.42;;;13.00;;
55254;SDS011;41118;44.634;11.182;2024-02-21T09:59:14;29.58;;;13.25;;
55254;SDS011;41118;44.634;11.182;2024-02-21T10:01:42;27.27;;;10.90;;
55254;SDS011;41118;44.634;11.182;2024-02-21T10:04:09;34.35;;;11.85;;
55254;SDS011;41118;44.634;11.182;2024-02-21T10:06:35;26.27;;;10.57;;
55254;SDS011;41118;44.634;11.182;2024-02-21T10:09:02;25.73;;;10.73;;
55254;SDS011;41118;44.634;11.182;2024-02-21T10:11:28;27.00;;;10.45;;
55254;SDS011;41118;44.634;11.182;2024-02-21T10:14:02;33.70;;;12.63;;
55254;SDS011;41118;44.634;11.182;2024-02-21T10:16:30;34.03;;;12.38;;
55254;SDS011;41118;44.634;11.182;2024-02-21T10:18:56;25.65;;;10.75;;
55254;SDS011;41118;44.634;11.182;2024-02-21T10:21:22;34.67;;;13.68;;
55254;SDS011;41118;44.634;11.182;2024-02-21T10:23:49;32.13;;;12.30;;
55254;SDS011;41118;44.634;11.182;2024-02-21T10:26:16;33.00;;;10.70;;
55254;SDS011;41118;44.634;11.182;2024-02-21T10:28:42;28.27;;;10.70;;
55254;SDS011;41118;44.634;11.182;2024-02-21T10:31:10;33.33;;;12.77;;
55254;SDS011;41118;44.634;11.182;2024-02-21T10:33:40;40.00;;;16.83;;
55254;SDS011;41118;44.634;11.182;2024-02-21T10:36:09;33.45;;;10.63;;
55254;SDS011;41118;44.634;11.182;2024-02-21T10:38:36;37.00;;;13.98;;
55254;SDS011;41118;44.634;11.182;2024-02-21T10:41:04;34.70;;;11.45;;
55254;SDS011;41118;44.634;11.182;2024-02-21T10:43:30;32.08;;;11.00;;
55254;SDS011;41118;44.634;11.182;2024-02-21T10:46:00;32.47;;;11.23;;
55254;SDS011;41118;44.634;11.182;2024-02-21T10:48:31;28.55;;;11.93;;
55254;SDS011;41118;44.634;11.182;2024-02-21T10:51:03;26.42;;;12.18;;
55254;SDS011;41118;44.634;11.182;2024-02-21T10:58:41;33.55;;;11.68;;
55254;SDS011;41118;44.634;11.182;2024-02-21T11:01:08;29.98;;;11.45;;
55254;SDS011;41118;44.634;11.182;2024-02-21T11:03:34;41.67;;;11.38;;
55254;SDS011;41118;44.634;11.182;2024-02-21T11:06:01;29.08;;;10.10;;
55254;SDS011;41118;44.634;11.182;2024-02-21T11:08:30;24.08;;;10.55;;
55254;SDS011;41118;44.634;11.182;2024-02-21T11:10:56;26.77;;;8.82;;
55254;SDS011;41118;44.634;11.182;2024-02-21T11:13:30;30.30;;;9.15;;
55254;SDS011;41118;44.634;11.182;2024-02-21T11:16:10;27.88;;;9.38;;
55254;SDS011;41118;44.634;11.182;2024-02-21T11:18:39;25.98;;;9.98;;
55254;SDS011;41118;44.634;11.182;2024-02-21T11:21:05;31.42;;;10.55;;
55254;SDS011;41118;44.634;11.182;2024-02-21T11:23:31;30.90;;;11.93;;
55254;SDS011;41118;44.634;11.182;2024-02-21T11:26:04;29.15;;;10.40;;
55254;SDS011;41118;44.634;11.182;2024-02-21T11:28:30;29.45;;;10.20;;
55254;SDS011;41118;44.634;11.182;2024-02-21T11:31:10;34.45;;;12.25;;
55254;SDS011;41118;44.634;11.182;2024-02-21T11:33:41;28.05;;;11.13;;
55254;SDS011;41118;44.634;11.182;2024-02-21T11:36:21;29.60;;;12.02;;
55254;SDS011;41118;44.634;11.182;2024-02-21T11:38:48;23.77;;;10.07;;
55254;SDS011;41118;44.634;11.182;2024-02-21T11:41:14;26.83;;;10.63;;
55254;SDS011;41118;44.634;11.182;2024-02-21T11:43:41;29.60;;;10.23;;
55254;SDS011;41118;44.634;11.182;2024-02-21T11:46:07;35.60;;;12.45;;
55254;SDS011;41118;44.634;11.182;2024-02-21T11:48:34;33.00;;;12.85;;
55254;SDS011;41118;44.634;11.182;2024-02-21T11:51:00;26.20;;;9.50;;
55254;SDS011;41118;44.634;11.182;2024-02-21T11:53:28;27.15;;;11.30;;
55254;SDS011;41118;44.634;11.182;2024-02-21T11:55:56;29.67;;;10.95;;
55254;SDS011;41118;44.634;11.182;2024-02-21T11:58:22;31.27;;;10.75;;
55254;SDS011;41118;44.634;11.182;2024-02-21T12:00:48;23.85;;;8.60;;
55254;SDS011;41118;44.634;11.182;2024-02-21T12:03:15;17.80;;;6.70;;
55254;SDS011;41118;44.634;11.182;2024-02-21T12:05:41;27.13;;;7.80;;
55254;SDS011;41118;44.634;11.182;2024-02-21T12:08:07;24.33;;;8.90;;
55254;SDS011;41118;44.634;11.182;2024-02-21T12:10:34;26.10;;;9.82;;
55254;SDS011;41118;44.634;11.182;2024-02-21T12:13:10;30.98;;;9.98;;
55254;SDS011;41118;44.634;11.182;2024-02-21T12:15:38;22.98;;;8.00;;
55254;SDS011;41118;44.634;11.182;2024-02-21T12:18:04;21.27;;;8.80;;
55254;SDS011;41118;44.634;11.182;2024-02-21T12:20:30;22.02;;;7.60;;
55254;SDS011;41118;44.634;11.182;2024-02-21T12:23:01;23.55;;;7.25;;
55254;SDS011;41118;44.634;11.182;2024-02-21T12:25:29;22.35;;;7.15;;
55254;SDS011;41118;44.634;11.182;2024-02-21T12:27:55;20.52;;;6.38;;
55254;SDS011;41118;44.634;11.182;2024-02-21T12:30:21;20.63;;;7.45;;
55254;SDS011;41118;44.634;11.182;2024-02-21T12:32:47;22.95;;;7.22;;
55254;SDS011;41118;44.634;11.182;2024-02-21T12:35:14;27.23;;;7.95;;
55254;SDS011;41118;44.634;11.182;2024-02-21T12:37:40;19.17;;;8.00;;
55254;SDS011;41118;44.634;11.182;2024-02-21T12:40:06;24.05;;;6.63;;
55254;SDS011;41118;44.634;11.182;2024-02-21T12:42:33;19.27;;;6.63;;
55254;SDS011;41118;44.634;11.182;2024-02-21T12:44:59;16.05;;;5.22;;
55254;SDS011;41118;44.634;11.182;2024-02-21T12:47:26;15.82;;;5.43;;
55254;SDS011;41118;44.634;11.182;2024-02-21T12:49:52;22.85;;;6.63;;
55254;SDS011;41118;44.634;11.182;2024-02-21T12:52:18;18.02;;;7.53;;
55254;SDS011;41118;44.634;11.182;2024-02-21T12:54:44;14.50;;;5.18;;
55254;SDS011;41118;44.634;11.182;2024-02-21T12:57:11;20.92;;;6.70;;
55254;SDS011;41118;44.634;11.182;2024-02-21T12:59:37;19.27;;;5.35;;
55254;SDS011;41118;44.634;11.182;2024-02-21T13:02:03;11.43;;;3.80;;
55254;SDS011;41118;44.634;11.182;2024-02-21T13:04:29;14.38;;;4.50;;
55254;SDS011;41118;44.634;11.182;2024-02-21T13:06:55;10.48;;;2.60;;
55254;SDS011;41118;44.634;11.182;2024-02-21T13:09:21;13.95;;;4.63;;
55254;SDS011;41118;44.634;11.182;2024-02-21T13:11:47;12.25;;;3.55;;
55254;SDS011;41118;44.634;11.182;2024-02-21T13:14:16;10.15;;;2.83;;
55254;SDS011;41118;44.634;11.182;2024-02-21T13:16:42;8.80;;;3.13;;
55254;SDS011;41118;44.634;11.182;2024-02-21T13:19:08;9.52;;;2.35;;
55254;SDS011;41118;44.634;11.182;2024-02-21T13:21:35;12.02;;;2.67;;
55254;SDS011;41118;44.634;11.182;2024-02-21T13:24:01;7.53;;;2.03;;
55254;SDS011;41118;44.634;11.182;2024-02-21T13:26:28;5.55;;;2.08;;
55254;SDS011;41118;44.634;11.182;2024-02-21T13:28:54;14.18;;;3.42;;
55254;SDS011;41118;44.634;11.182;2024-02-21T13:31:20;13.80;;;3.50;;
55254;SDS011;41118;44.634;11.182;2024-02-21T13:33:46;11.75;;;3.63;;
55254;SDS011;41118;44.634;11.182;2024-02-21T13:36:12;11.00;;;3.67;;
55254;SDS011;41118;44.634;11.182;2024-02-21T13:38:38;14.90;;;2.67;;
55254;SDS011;41118;44.634;11.182;2024-02-21T13:41:05;11.85;;;3.45;;
55254;SDS011;41118;44.634;11.182;2024-02-21T13:43:32;9.52;;;4.18;;
55254;SDS011;41118;44.634;11.182;2024-02-21T13:45:59;7.45;;;1.08;;
55254;SDS011;41118;44.634;11.182;2024-02-21T13:48:27;8.10;;;1.10;;
55254;SDS011;41118;44.634;11.182;2024-02-21T13:50:55;7.35;;;1.25;;
55254;SDS011;41118;44.634;11.182;2024-02-21T13:53:21;11.30;;;3.28;;
55254;SDS011;41118;44.634;11.182;2024-02-21T13:55:48;9.52;;;2.65;;
55254;SDS011;41118;44.634;11.182;2024-02-21T13:58:14;12.13;;;3.05;;
55254;SDS011;41118;44.634;11.182;2024-02-21T14:00:40;13.00;;;3.97;;
55254;SDS011;41118;44.634;11.182;2024-02-21T14:03:07;15.70;;;3.47;;
55254;SDS011;41118;44.634;11.182;2024-02-21T14:05:33;11.00;;;2.53;;
55254;SDS011;41118;44.634;11.182;2024-02-21T14:07:59;12.57;;;3.35;;
55254;SDS011;41118;44.634;11.182;2024-02-21T14:10:25;13.98;;;3.50;;
55254;SDS011;41118;44.634;11.182;2024-02-21T14:12:51;16.95;;;4.82;;
55254;SDS011;41118;44.634;11.182;2024-02-21T14:15:17;14.73;;;5.10;;
55254;SDS011;41118;44.634;11.182;2024-02-21T14:17:43;12.18;;;4.30;;